createdAt,value
2019-03-05T00:02:05.668Z,99.90
2019-03-05T00:04:35.066Z,99.90
2019-03-05T00:07:04.434Z,99.90
2019-03-05T00:09:33.759Z,99.90
2019-03-05T00:12:03.144Z,99.90
2019-03-05T00:14:32.476Z,99.90
2019-03-05T00:17:01.808Z,99.90
2019-03-05T00:19:31.231Z,99.90
2019-03-05T00:22:00.643Z,99.90
2019-03-05T00:24:58.486Z,99.90
2019-03-05T00:27:28.874Z,99.90
2019-03-05T00:30:23.968Z,99.90
2019-03-05T00:32:58.492Z,99.90
2019-03-05T00:36:27.111Z,99.90
2019-03-05T00:39:35.714Z,99.90
2019-03-05T00:42:47.438Z,99.90
2019-03-05T00:46:04.044Z,99.90
2019-03-05T00:49:00.554Z,99.90
2019-03-05T00:52:07.725Z,99.90
2019-03-05T00:55:03.873Z,99.90
2019-03-05T00:58:00.888Z,99.90
2019-03-05T01:00:56.934Z,99.90
2019-03-05T01:03:44.147Z,99.90
2019-03-05T01:06:23.046Z,99.90
2019-03-05T01:08:54.539Z,99.90
2019-03-05T01:11:24.874Z,99.90
2019-03-05T01:13:54.348Z,99.90
2019-03-05T01:16:28.603Z,99.90
2019-03-05T01:18:58.454Z,99.90
2019-03-05T01:21:27.779Z,99.90
2019-03-05T01:26:26.527Z,99.90
2019-03-05T01:28:55.846Z,99.90
2019-03-05T01:31:44.205Z,99.90
2019-03-05T01:34:21.591Z,99.90
2019-03-05T01:36:55.238Z,99.90
2019-03-05T01:39:45.070Z,99.90
2019-03-05T06:15:50.144Z,99.90
2019-03-05T06:18:19.462Z,99.90
2019-03-05T06:20:48.794Z,99.90
2019-03-05T06:23:18.171Z,99.90
2019-03-05T06:25:47.508Z,99.90
2019-03-05T06:28:16.832Z,99.90
2019-03-05T06:30:46.266Z,99.90
2019-03-05T06:33:15.648Z,99.90
2019-03-05T06:35:44.994Z,99.90
2019-03-05T06:38:14.391Z,99.90
2019-03-05T06:40:43.715Z,99.90
2019-03-05T06:43:13.055Z,99.90
2019-03-05T06:45:42.607Z,99.90
2019-03-05T06:48:11.946Z,99.90
2019-03-05T06:50:41.288Z,99.90
2019-03-05T06:53:10.632Z,99.90
2019-03-05T06:55:39.994Z,99.90
2019-03-05T06:58:11.682Z,99.90
2019-03-05T07:00:40.801Z,99.90
2019-03-05T07:03:10.649Z,99.90
2019-03-05T07:06:15.422Z,99.90
2019-03-05T07:09:21.266Z,99.90
2019-03-05T07:12:15.358Z,99.90
2019-03-05T07:15:12.027Z,99.90
2019-03-05T07:17:45.474Z,99.90
2019-03-05T07:20:53.575Z,99.90
2019-03-05T07:23:55.415Z,99.90
2019-03-05T07:26:25.019Z,99.90
2019-03-05T07:28:54.637Z,99.90
2019-03-05T07:31:24.030Z,99.90
2019-03-05T07:33:53.364Z,99.90
2019-03-05T07:36:22.706Z,99.90
2019-03-05T07:38:52.039Z,99.90
2019-03-05T07:41:21.374Z,99.90
2019-03-05T07:43:50.765Z,99.90
2019-03-05T07:46:20.447Z,99.90
2019-03-05T07:48:49.819Z,99.90
2019-03-05T07:51:19.151Z,99.90
2019-03-05T07:53:48.522Z,99.90
2019-03-05T07:56:18.267Z,99.90
2019-03-05T07:58:47.594Z,99.90
2019-03-05T08:01:22.165Z,99.90
2019-03-05T08:03:47.991Z,99.90
2019-03-05T08:06:17.322Z,99.90
2019-03-05T08:09:21.879Z,99.90
2019-03-05T08:11:51.254Z,99.90
2019-03-05T08:14:46.718Z,99.90
2019-03-05T08:17:16.180Z,99.90
2019-03-05T08:19:45.518Z,99.90
2019-03-05T08:22:14.959Z,99.90
2019-03-05T08:24:44.279Z,99.90
2019-03-05T08:27:14.028Z,99.90
2019-03-05T08:29:43.456Z,99.90
2019-03-05T08:32:12.865Z,99.90
2019-03-05T08:34:42.209Z,99.90
2019-03-05T08:37:13.482Z,99.90
2019-03-05T08:39:43.083Z,99.90
2019-03-05T08:42:12.442Z,99.90
2019-03-05T08:44:49.930Z,99.90
2019-03-05T08:47:13.136Z,99.90
2019-03-05T08:49:42.493Z,99.90
2019-03-05T08:52:11.898Z,99.90
2019-03-05T08:54:41.285Z,99.90
2019-03-05T08:57:11.454Z,99.90
2019-03-05T08:59:40.803Z,99.90
2019-03-05T09:02:10.147Z,99.90
2019-03-05T09:04:39.488Z,99.90
2019-03-05T09:07:09.064Z,99.90
2019-03-05T09:09:38.404Z,99.90
2019-03-05T09:12:07.812Z,99.90
2019-03-05T09:14:37.151Z,99.90
2019-03-05T09:17:06.883Z,99.90
2019-03-05T09:19:36.287Z,99.90
2019-03-05T09:22:05.711Z,99.90
2019-03-05T09:24:35.333Z,99.90
2019-03-05T09:27:04.767Z,99.90
2019-03-05T09:29:34.334Z,99.90
2019-03-05T09:32:03.672Z,99.90
2019-03-05T09:34:33.022Z,99.90
2019-03-05T09:37:02.387Z,99.90
2019-03-05T09:39:31.732Z,99.90
2019-03-05T09:42:01.143Z,99.90
2019-03-05T09:44:30.503Z,99.90
2019-03-05T09:47:00.388Z,99.90
2019-03-05T09:49:29.963Z,99.90
2019-03-05T09:51:59.291Z,99.90
2019-03-05T09:54:28.950Z,99.90
2019-03-05T10:11:56.845Z,99.90
2019-03-05T10:14:25.436Z,99.90
2019-03-05T10:16:54.762Z,99.90
2019-03-05T10:19:24.098Z,99.90
2019-03-05T10:21:53.440Z,99.90
2019-03-05T10:24:22.847Z,99.90
2019-03-05T10:26:52.416Z,99.90
2019-03-05T10:29:22.038Z,99.90
2019-03-05T10:31:51.379Z,99.90
2019-03-05T10:34:20.722Z,99.90
2019-03-05T10:59:17.707Z,94.90
2019-03-05T11:01:49.087Z,94.30
2019-03-05T11:04:18.646Z,95.90
2019-03-05T11:06:48.118Z,94.60
2019-03-05T11:09:19.787Z,94.40
2019-03-05T11:11:49.244Z,94.70
2019-03-05T11:14:18.567Z,95.80
2019-03-05T11:16:49.970Z,97.80
2019-03-05T11:19:19.535Z,98.80
2019-03-05T11:21:48.951Z,98.70
2019-03-05T11:24:18.286Z,98.20
2019-03-05T11:26:47.694Z,98.00
2019-03-05T11:29:17.109Z,96.30
2019-03-05T11:31:46.443Z,96.10
2019-03-05T11:34:16.184Z,92.40
2019-03-05T11:36:45.725Z,91.80
2019-03-05T11:39:15.626Z,90.80
2019-03-05T11:41:44.964Z,87.40
2019-03-05T11:44:14.301Z,89.60
2019-03-05T11:46:43.739Z,83.80
2019-03-05T11:49:13.070Z,86.20
2019-03-05T11:51:42.666Z,86.10
2019-03-05T11:54:12.019Z,85.90
2019-03-05T11:56:41.555Z,89.30
2019-03-05T11:59:10.898Z,92.10
2019-03-05T12:01:46.187Z,92.00
2019-03-05T12:04:15.807Z,90.40
2019-03-05T12:06:45.441Z,87.10
2019-03-05T12:09:14.992Z,83.80
2019-03-05T12:11:44.582Z,79.30
2019-03-05T12:14:13.935Z,79.40
2019-03-05T12:16:43.273Z,79.20
2019-03-05T12:19:12.605Z,88.30
2019-03-05T12:21:42.194Z,80.90
2019-03-05T12:24:11.542Z,74.60
2019-03-05T12:26:40.884Z,74.00
2019-03-05T12:29:10.218Z,74.00
2019-03-05T12:31:39.550Z,72.60
2019-03-05T12:34:09.216Z,73.60
2019-03-05T12:36:38.610Z,74.40
2019-03-05T12:39:09.715Z,69.00
2019-03-05T13:50:13.295Z,88.60
2019-03-05T13:53:22.537Z,88.10
2019-03-05T13:56:32.552Z,87.10
2019-03-05T13:59:37.565Z,78.10
